Time;durP1;ratioP1;P1;durP2;ratioP2;P2;SDS_P1;SDS_P2;PMS_P1;PMS_P2;Temp;Humidity;BMP_temperature;BMP_pressure;BME280_temperature;BME280_humidity;BME280_pressure;Samples;Min_cycle;Max_cycle;Signal;HPM_P1;HPM_P2
2024/02/24 00:01:08;;;;;;;;;;;;;;;7.31;72.67;100796.10;107594;1254;97764;-65
2024/02/24 00:03:53;;;;;;;;;;;;;;;7.28;72.75;100796.54;107634;1254;110926;-65
2024/02/24 00:06:21;;;;;;;;;;;;;;;7.26;72.64;100801.48;107572;1256;108657;-65
2024/02/24 00:08:50;;;;;;;;;;;;;;;7.27;72.60;100801.23;107536;1252;108677;-67
2024/02/24 00:11:18;;;;;;;;;;;;;;;7.27;72.49;100793.02;107585;1254;97934;-66
2024/02/24 00:13:47;;;;;;;;;;;;;;;7.28;72.32;100793.48;107542;1254;97848;-66
2024/02/24 00:16:15;;;;;;;;;;;;;;;7.27;72.16;100792.48;107593;1254;112002;-65
2024/02/24 00:18:43;;;;;;;;;;;;;;;7.29;72.00;100792.91;107544;1254;108796;-66
2024/02/24 00:21:12;;;;;;;;;;;;;;;7.29;72.03;100793.95;107595;1253;109231;-67
2024/02/24 00:23:40;;;;;;;;;;;;;;;7.26;71.70;100786.12;107576;1254;97898;-65
2024/02/24 00:26:09;;;;;;;;;;;;;;;7.27;71.65;100784.65;107594;1256;97861;-65
2024/02/24 00:28:37;;;;;;;;;;;;;;;7.29;71.60;100785.24;107671;1255;111244;-65
2024/02/24 00:31:05;;;;;;;;;;;;;;;7.31;71.57;100786.48;107557;1256;107766;-64
2024/02/24 00:33:33;;;;;;;;;;;;;;;7.32;71.54;100782.66;107592;1253;107696;-65
2024/02/24 00:36:03;;;;;;;;;;;;;;;7.33;71.46;100779.76;107517;1254;97727;-63
2024/02/24 00:38:31;;;;;;;;;;;;;;;7.34;71.47;100780.71;107632;1254;97829;-64
2024/02/24 00:41:00;;;;;;;;;;;;;;;7.35;71.02;100775.32;107578;1254;112206;-64
2024/02/24 00:43:28;;;;;;;;;;;;;;;7.34;71.12;100771.42;107615;1254;107400;-66
2024/02/24 00:45:56;;;;;;;;;;;;;;;7.32;71.00;100771.39;107614;1256;108193;-65
2024/02/24 00:48:24;;;;;;;;;;;;;;;7.27;70.87;100767.73;107571;1251;97859;-67
2024/02/24 00:50:53;;;;;;;;;;;;;;;7.21;70.74;100761.56;107579;1254;97837;-68
2024/02/24 00:53:21;;;;;;;;;;;;;;;7.16;70.51;100761.71;107617;1252;111930;-65
2024/02/24 00:55:50;;;;;;;;;;;;;;;7.14;70.63;100761.52;107506;1254;107891;-66
2024/02/24 00:58:18;;;;;;;;;;;;;;;7.13;70.34;100760.88;107620;1254;107039;-64
2024/02/24 01:00:46;;;;;;;;;;;;;;;7.05;70.44;100764.13;107621;1254;98292;-63
2024/02/24 01:03:15;;;;;;;;;;;;;;;6.97;70.64;100766.15;107613;1254;97812;-63
2024/02/24 01:05:44;;;;;;;;;;;;;;;6.93;71.68;100766.86;107605;1251;111941;-65
2024/02/24 01:08:13;;;;;;;;;;;;;;;6.88;72.20;100767.01;107614;1251;106828;-64
2024/02/24 01:10:41;;;;;;;;;;;;;;;6.83;72.74;100767.38;107595;1251;108406;-66
2024/02/24 01:13:10;;;;;;;;;;;;;;;6.79;73.14;100761.91;107550;1251;97828;-65
2024/02/24 01:15:38;;;;;;;;;;;;;;;6.77;74.00;100765.83;107544;1254;97817;-64
2024/02/24 01:18:06;;;;;;;;;;;;;;;6.78;74.07;100761.62;107567;1254;111681;-64
2024/02/24 01:20:35;;;;;;;;;;;;;;;6.76;73.87;100769.64;107592;1254;108014;-64
2024/02/24 01:23:03;;;;;;;;;;;;;;;6.78;74.28;100774.52;107614;1254;108306;-63
2024/02/24 01:25:32;;;;;;;;;;;;;;;6.77;74.38;100777.05;107579;1254;98356;-64
2024/02/24 01:28:00;;;;;;;;;;;;;;;6.80;73.72;100772.40;107579;1254;98008;-64
2024/02/24 01:30:28;;;;;;;;;;;;;;;6.81;73.81;100765.19;107670;1256;112021;-65
2024/02/24 01:32:57;;;;;;;;;;;;;;;6.79;73.27;100769.11;107597;1254;106304;-64
2024/02/24 01:35:25;;;;;;;;;;;;;;;6.77;73.15;100770.14;107640;1256;108192;-63
2024/02/24 01:37:54;;;;;;;;;;;;;;;6.74;73.14;100764.80;107619;1254;97831;-65
2024/02/24 01:40:22;;;;;;;;;;;;;;;6.71;73.06;100763.42;107655;1254;97909;-64
2024/02/24 01:42:50;;;;;;;;;;;;;;;6.68;72.92;100763.45;107589;1254;111790;-65
2024/02/24 01:45:18;;;;;;;;;;;;;;;6.64;72.82;100768.52;107536;1251;107488;-69
2024/02/24 01:47:47;;;;;;;;;;;;;;;6.61;72.79;100768.42;107597;1256;108258;-65
2024/02/24 01:50:15;;;;;;;;;;;;;;;6.58;72.81;100769.51;107486;1251;97860;-65
2024/02/24 01:52:47;;;;;;;;;;;;;;;6.57;72.70;100771.54;107578;1251;97809;-66
2024/02/24 01:55:18;;;;;;;;;;;;;;;6.55;72.76;100773.79;107449;1251;111473;-65
2024/02/24 01:57:47;;;;;;;;;;;;;;;6.52;72.77;100782.76;107615;1251;107527;-66
2024/02/24 02:00:16;;;;;;;;;;;;;;;6.49;72.77;100783.83;107502;1254;107520;-65
2024/02/24 02:02:45;;;;;;;;;;;;;;;6.48;72.89;100782.85;107491;1251;99035;-65
2024/02/24 02:05:14;;;;;;;;;;;;;;;6.46;72.69;100778.55;107490;1251;97802;-65
2024/02/24 02:07:42;;;;;;;;;;;;;;;6.42;72.44;100778.85;107521;1251;111587;-65
2024/02/24 02:10:11;;;;;;;;;;;;;;;6.39;72.70;100776.17;107444;1251;108337;-65
2024/02/24 02:12:39;;;;;;;;;;;;;;;6.36;72.80;100778.92;107431;1251;106513;-65
2024/02/24 02:15:08;;;;;;;;;;;;;;;6.30;73.47;100776.30;107571;1251;97741;-65
2024/02/24 02:17:36;;;;;;;;;;;;;;;6.21;74.98;100774.41;107502;1254;97843;-64
2024/02/24 02:20:06;;;;;;;;;;;;;;;6.12;74.81;100782.56;107603;1256;111207;-64
2024/02/24 02:22:35;;;;;;;;;;;;;;;6.05;74.50;100779.09;107608;1252;107648;-64
2024/02/24 02:25:04;;;;;;;;;;;;;;;6.01;75.31;100781.73;107565;1256;108347;-64
2024/02/24 02:27:32;;;;;;;;;;;;;;;5.96;76.20;100784.85;107439;1254;97853;-65
2024/02/24 02:30:03;;;;;;;;;;;;;;;5.92;75.56;100790.07;107603;1251;97915;-65
2024/02/24 02:32:31;;;;;;;;;;;;;;;5.91;75.57;100787.98;107647;1251;111706;-64
2024/02/24 02:35:00;;;;;;;;;;;;;;;5.92;75.87;100791.52;107676;1254;107889;-66
2024/02/24 02:37:28;;;;;;;;;;;;;;;5.88;76.00;100793.94;107623;1254;108050;-65
2024/02/24 02:39:56;;;;;;;;;;;;;;;5.86;75.70;100795.86;107551;1253;97934;-66
2024/02/24 02:42:24;;;;;;;;;;;;;;;5.83;75.99;100796.24;107554;1254;97743;-66
2024/02/24 02:44:52;;;;;;;;;;;;;;;5.83;75.64;100796.40;107648;1254;112373;-66
2024/02/24 02:47:20;;;;;;;;;;;;;;;5.86;75.74;100796.39;107645;1254;108360;-64
2024/02/24 02:49:51;;;;;;;;;;;;;;;5.88;75.83;100788.08;107662;1256;108283;-64
2024/02/24 02:52:20;;;;;;;;;;;;;;;5.86;75.63;100785.73;107649;1255;97943;-64
2024/02/24 02:54:48;;;;;;;;;;;;;;;5.82;75.68;100784.59;107567;1254;97732;-63
2024/02/24 02:57:17;;;;;;;;;;;;;;;5.79;76.05;100781.70;107652;1254;111088;-63
2024/02/24 02:59:45;;;;;;;;;;;;;;;5.74;76.64;100784.55;107676;1254;108959;-62
2024/02/24 03:02:14;;;;;;;;;;;;;;;5.66;76.58;100791.67;107665;1254;108355;-65
2024/02/24 03:04:42;;;;;;;;;;;;;;;5.58;77.59;100797.74;107615;1253;97847;-64
2024/02/24 03:07:11;;;;;;;;;;;;;;;5.53;77.85;100796.51;107617;1254;97850;-67
2024/02/24 03:09:39;;;;;;;;;;;;;;;5.52;78.41;100793.86;107657;1255;111215;-67
2024/02/24 03:12:08;;;;;;;;;;;;;;;5.56;78.73;100795.56;107668;1254;107323;-68
2024/02/24 03:14:36;;;;;;;;;;;;;;;5.59;78.61;100798.16;107659;1253;108673;-64
2024/02/24 03:17:05;;;;;;;;;;;;;;;5.60;79.20;100798.86;107617;1254;97845;-67
2024/02/24 03:19:33;;;;;;;;;;;;;;;5.60;79.18;100805.40;107646;1253;97742;-67
2024/02/24 03:22:02;;;;;;;;;;;;;;;5.60;79.06;100808.59;107639;1251;110927;-65
2024/02/24 03:24:30;;;;;;;;;;;;;;;5.59;78.90;100807.63;107590;1254;107876;-64
2024/02/24 03:26:58;;;;;;;;;;;;;;;5.58;79.51;100807.17;107624;1254;107210;-64
2024/02/24 03:29:27;;;;;;;;;;;;;;;5.55;79.40;100814.32;107652;1254;97921;-63
2024/02/24 03:31:55;;;;;;;;;;;;;;;5.51;79.23;100819.02;107659;1253;97760;-65
2024/02/24 03:34:23;;;;;;;;;;;;;;;5.50;79.71;100821.23;107557;1256;111403;-63
2024/02/24 03:36:52;;;;;;;;;;;;;;;5.48;79.65;100819.02;107574;1254;107942;-63
2024/02/24 03:39:21;;;;;;;;;;;;;;;5.46;79.25;100818.10;107598;1251;107787;-65
2024/02/24 03:41:49;;;;;;;;;;;;;;;5.45;79.08;100824.02;107545;1253;98442;-64
2024/02/24 03:44:18;;;;;;;;;;;;;;;5.43;78.88;100824.85;107670;1253;97912;-64
2024/02/24 03:46:46;;;;;;;;;;;;;;;5.42;78.80;100819.23;107458;1254;111061;-66
2024/02/24 03:49:15;;;;;;;;;;;;;;;5.43;78.68;100819.14;107650;1256;108532;-64
2024/02/24 03:51:43;;;;;;;;;;;;;;;5.46;78.47;100825.91;107482;1252;108170;-66
2024/02/24 03:54:11;;;;;;;;;;;;;;;5.46;78.34;100823.77;107592;1254;97726;-65
2024/02/24 03:56:39;;;;;;;;;;;;;;;5.46;78.31;100823.58;107641;1254;97832;-64
2024/02/24 03:59:08;;;;;;;;;;;;;;;5.47;78.04;100824.24;107613;1254;111868;-67
2024/02/24 04:01:39;;;;;;;;;;;;;;;5.44;78.05;100823.37;107512;1250;107698;-64
2024/02/24 04:04:08;;;;;;;;;;;;;;;5.42;78.37;100823.32;107541;1251;107787;-64
2024/02/24 04:06:36;;;;;;;;;;;;;;;5.38;78.19;100818.79;107527;1251;97902;-64
2024/02/24 04:09:05;;;;;;;;;;;;;;;5.37;78.08;100817.96;107548;1251;97796;-64
2024/02/24 04:11:35;;;;;;;;;;;;;;;5.37;78.29;100814.41;107546;1251;111798;-64
2024/02/24 04:14:03;;;;;;;;;;;;;;;5.33;78.12;100814.63;107497;1251;109270;-65
2024/02/24 04:16:31;;;;;;;;;;;;;;;5.35;78.18;100818.29;107486;1254;107756;-66
2024/02/24 04:19:00;;;;;;;;;;;;;;;5.37;78.22;100817.09;107601;1252;97861;-65
2024/02/24 04:21:28;;;;;;;;;;;;;;;5.40;78.02;100809.09;107681;1253;97723;-67
2024/02/24 04:23:57;;;;;;;;;;;;;;;5.41;78.53;100813.23;107656;1253;111838;-66
2024/02/24 04:26:25;;;;;;;;;;;;;;;5.39;78.31;100814.77;107676;1254;108500;-66
2024/02/24 04:28:54;;;;;;;;;;;;;;;5.38;78.31;100811.13;107634;1254;107681;-64
2024/02/24 04:31:22;;;;;;;;;;;;;;;5.39;78.18;100811.27;107614;1254;97877;-65
2024/02/24 04:33:50;;;;;;;;;;;;;;;5.39;78.02;100817.15;107643;1252;97697;-67
2024/02/24 04:36:19;;;;;;;;;;;;;;;5.40;78.22;100818.67;107646;1254;111214;-65
2024/02/24 04:38:47;;;;;;;;;;;;;;;5.41;78.06;100822.16;107610;1256;108083;-65
2024/02/24 04:41:16;;;;;;;;;;;;;;;5.40;77.91;100818.30;107634;1252;107659;-65
2024/02/24 04:43:44;;;;;;;;;;;;;;;5.39;78.14;100821.90;107596;1254;97896;-65
2024/02/24 04:46:12;;;;;;;;;;;;;;;5.41;77.97;100823.73;107595;1254;97842;-66
2024/02/24 04:48:42;;;;;;;;;;;;;;;5.43;78.33;100827.02;107613;1254;111330;-65
2024/02/24 04:51:11;;;;;;;;;;;;;;;5.43;78.24;100829.85;107618;1253;108144;-64
2024/02/24 04:53:39;;;;;;;;;;;;;;;5.44;78.38;100834.58;107642;1254;108322;-64
2024/02/24 04:56:09;;;;;;;;;;;;;;;5.44;78.19;100832.11;107635;1253;97819;-65
2024/02/24 04:58:38;;;;;;;;;;;;;;;5.45;78.40;100834.89;107599;1254;97742;-63
2024/02/24 05:01:06;;;;;;;;;;;;;;;5.43;78.61;100832.54;107598;1254;111845;-63
2024/02/24 05:03:35;;;;;;;;;;;;;;;5.43;78.61;100826.97;107645;1254;107317;-62
2024/02/24 05:06:05;;;;;;;;;;;;;;;5.43;78.79;100829.32;107603;1253;108624;-65
2024/02/24 05:08:33;;;;;;;;;;;;;;;5.42;79.07;100828.29;107585;1253;97960;-64
2024/02/24 05:11:02;;;;;;;;;;;;;;;5.45;79.53;100830.63;107655;1254;97848;-65
2024/02/24 05:13:30;;;;;;;;;;;;;;;5.46;79.86;100830.39;107644;1254;111403;-64
2024/02/24 05:16:03;;;;;;;;;;;;;;;5.47;79.98;100827.45;107677;1254;107901;-63
2024/02/24 05:18:32;;;;;;;;;;;;;;;5.50;80.23;100838.47;107600;1254;107734;-63
2024/02/24 05:21:00;;;;;;;;;;;;;;;5.50;81.11;100843.09;107590;1254;97941;-62
2024/02/24 05:23:29;;;;;;;;;;;;;;;5.48;81.66;100851.59;107649;1253;97861;-63
2024/02/24 05:25:57;;;;;;;;;;;;;;;5.47;81.21;100854.88;107618;1254;112028;-63
2024/02/24 05:28:25;;;;;;;;;;;;;;;5.45;81.34;100858.69;107474;1253;108170;-62
2024/02/24 05:30:54;;;;;;;;;;;;;;;5.44;81.62;100862.13;107590;1256;108724;-64
2024/02/24 05:33:22;;;;;;;;;;;;;;;5.46;81.55;100864.14;107629;1254;97825;-64
2024/02/24 05:35:51;;;;;;;;;;;;;;;5.47;82.01;100871.22;107596;1253;97833;-65
2024/02/24 05:38:20;;;;;;;;;;;;;;;5.48;82.12;100873.80;107668;1254;111807;-63
2024/02/24 05:40:48;;;;;;;;;;;;;;;5.52;82.69;100881.04;107566;1251;108160;-65
2024/02/24 05:43:16;;;;;;;;;;;;;;;5.58;82.79;100880.31;107516;1254;107851;-64
2024/02/24 05:45:44;;;;;;;;;;;;;;;5.62;83.00;100877.34;107542;1251;97934;-63
2024/02/24 05:48:12;;;;;;;;;;;;;;;5.70;83.18;100880.42;107594;1253;97711;-64
2024/02/24 05:50:41;;;;;;;;;;;;;;;5.74;82.66;100888.14;107594;1251;113274;-63
2024/02/24 05:53:09;;;;;;;;;;;;;;;5.78;82.38;100898.70;107600;1254;106941;-63
2024/02/24 05:55:39;;;;;;;;;;;;;;;5.82;82.25;100900.43;107546;1254;107602;-63
2024/02/24 05:58:08;;;;;;;;;;;;;;;5.88;82.08;100900.20;107582;1251;97743;-63
2024/02/24 06:00:37;;;;;;;;;;;;;;;5.93;82.12;100900.22;107605;1251;97823;-64
2024/02/24 06:03:11;;;;;;;;;;;;;;;5.97;82.35;100902.80;107621;1250;110808;-64
2024/02/24 06:05:41;;;;;;;;;;;;;;;5.99;82.13;100907.30;107603;1251;110656;-64
2024/02/24 06:08:09;;;;;;;;;;;;;;;6.04;82.59;100905.21;107576;1251;110420;-63
2024/02/24 06:10:38;;;;;;;;;;;;;;;6.12;82.61;100903.45;107535;1250;98072;-64
2024/02/24 06:13:07;;;;;;;;;;;;;;;6.17;82.62;100907.36;107619;1251;97822;-65
2024/02/24 06:15:35;;;;;;;;;;;;;;;6.24;82.97;100905.25;107593;1250;111819;-65
2024/02/24 06:18:03;;;;;;;;;;;;;;;6.34;82.89;100909.28;107605;1251;108472;-64
2024/02/24 06:20:32;;;;;;;;;;;;;;;6.40;82.68;100913.82;107598;1253;106921;-63
2024/02/24 06:23:00;;;;;;;;;;;;;;;6.47;82.52;100910.89;107550;1251;98046;-62
2024/02/24 06:25:28;;;;;;;;;;;;;;;6.49;82.75;100912.89;107553;1250;97704;-62
2024/02/24 06:27:56;;;;;;;;;;;;;;;6.48;82.87;100913.45;107550;1254;111522;-63
2024/02/24 06:30:24;;;;;;;;;;;;;;;6.48;82.95;100914.86;107440;1254;108225;-64
2024/02/24 06:32:52;;;;;;;;;;;;;;;6.51;82.89;100918.56;107505;1251;107376;-63
2024/02/24 06:35:21;;;;;;;;;;;;;;;6.54;83.33;100921.38;107543;1251;97701;-64
2024/02/24 06:37:49;;;;;;;;;;;;;;;6.59;83.18;100924.83;107544;1250;97816;-64
2024/02/24 06:40:17;;;;;;;;;;;;;;;6.67;83.44;100927.80;107549;1251;112037;-63
2024/02/24 06:43:00;;;;;;;;;;;;;;;6.80;83.08;100930.15;107551;1251;108495;-64
2024/02/24 06:45:28;;;;;;;;;;;;;;;6.98;83.28;100929.59;107496;1251;109029;-66
2024/02/24 06:47:56;;;;;;;;;;;;;;;7.13;82.66;100935.84;107609;1254;97893;-66
2024/02/24 06:50:25;;;;;;;;;;;;;;;7.26;82.42;100940.06;107518;1250;97842;-66
2024/02/24 06:52:53;;;;;;;;;;;;;;;7.43;82.24;100945.86;107575;1251;112115;-65
2024/02/24 06:55:22;;;;;;;;;;;;;;;7.58;81.88;100945.97;107570;1251;108055;-64
2024/02/24 06:57:50;;;;;;;;;;;;;;;7.68;81.50;100947.75;107531;1253;108199;-65
2024/02/24 07:00:19;;;;;;;;;;;;;;;7.79;81.11;100941.58;107480;1254;98012;-63
2024/02/24 07:02:49;;;;;;;;;;;;;;;7.88;80.92;100940.27;107549;1254;98297;-65
2024/02/24 07:05:18;;;;;;;;;;;;;;;7.97;80.53;100935.79;107523;1251;111385;-65
2024/02/24 07:07:46;;;;;;;;;;;;;;;8.08;80.22;100937.70;107582;1251;107357;-66
2024/02/24 07:10:15;;;;;;;;;;;;;;;8.20;79.98;100940.16;107530;1251;107937;-66
2024/02/24 07:12:43;;;;;;;;;;;;;;;8.33;79.42;100941.50;107498;1250;97832;-64
2024/02/24 07:15:12;;;;;;;;;;;;;;;8.45;79.03;100946.17;107528;1250;97729;-65
2024/02/24 07:17:40;;;;;;;;;;;;;;;8.58;78.88;100939.45;107626;1250;111163;-65
2024/02/24 07:20:09;;;;;;;;;;;;;;;8.71;78.45;100942.08;107555;1250;108760;-63
2024/02/24 07:22:38;;;;;;;;;;;;;;;8.83;77.96;100941.14;107542;1250;108226;-64
2024/02/24 07:25:06;;;;;;;;;;;;;;;8.93;77.59;100941.20;107515;1251;98614;-64
2024/02/24 07:27:34;;;;;;;;;;;;;;;9.04;77.06;100931.73;107522;1250;98363;-64
2024/02/24 07:30:03;;;;;;;;;;;;;;;9.15;76.70;100937.92;107549;1254;113057;-64
2024/02/24 07:32:33;;;;;;;;;;;;;;;9.22;76.37;100934.79;107598;1251;107182;-66
2024/02/24 07:35:07;;;;;;;;;;;;;;;9.27;75.84;100934.96;107543;1254;107448;-66
2024/02/24 07:37:35;;;;;;;;;;;;;;;9.30;75.51;100938.33;107558;1251;97928;-64
2024/02/24 07:40:04;;;;;;;;;;;;;;;9.31;75.40;100941.56;107556;1251;97867;-64
2024/02/24 07:42:32;;;;;;;;;;;;;;;9.33;75.53;100940.35;107546;1250;111650;-64
2024/02/24 07:45:00;;;;;;;;;;;;;;;9.41;75.64;100937.23;107609;1254;108338;-65
2024/02/24 07:47:29;;;;;;;;;;;;;;;9.49;75.32;100934.95;107596;1253;108535;-65
2024/02/24 07:49:57;;;;;;;;;;;;;;;9.62;75.37;100935.71;107620;1253;97928;-65
2024/02/24 07:52:26;;;;;;;;;;;;;;;9.76;75.00;100936.56;107735;1253;97812;-64
2024/02/24 07:54:55;;;;;;;;;;;;;;;9.81;74.80;100932.91;107611;1253;111482;-65
2024/02/24 07:57:24;;;;;;;;;;;;;;;9.83;74.54;100932.20;107618;1251;108613;-64
2024/02/24 07:59:52;;;;;;;;;;;;;;;9.83;74.47;100938.09;107581;1251;108470;-65
2024/02/24 08:02:20;;;;;;;;;;;;;;;9.87;74.35;100925.08;107598;1254;97922;-64
2024/02/24 08:04:49;;;;;;;;;;;;;;;9.82;74.25;100929.78;107590;1251;97813;-65
2024/02/24 08:07:17;;;;;;;;;;;;;;;9.81;74.36;100931.08;107564;1251;112057;-64
2024/02/24 08:09:46;;;;;;;;;;;;;;;9.84;74.28;100932.32;107565;1254;106921;-63
2024/02/24 08:12:15;;;;;;;;;;;;;;;9.85;74.35;100939.05;107545;1251;108348;-63
2024/02/24 08:14:43;;;;;;;;;;;;;;;9.97;74.53;100934.27;107551;1252;97937;-63
2024/02/24 08:17:12;;;;;;;;;;;;;;;10.17;74.23;100934.20;107502;1251;97703;-63
2024/02/24 08:19:43;;;;;;;;;;;;;;;10.40;73.74;100935.75;107588;1251;111476;-63
2024/02/24 08:22:11;;;;;;;;;;;;;;;10.62;73.66;100932.27;107544;1251;108545;-64
2024/02/24 08:24:40;;;;;;;;;;;;;;;10.85;73.43;100928.31;107529;1251;107902;-62
2024/02/24 08:27:08;;;;;;;;;;;;;;;11.08;72.88;100931.46;107550;1251;97853;-63
2024/02/24 08:29:36;;;;;;;;;;;;;;;11.34;71.51;100940.13;107471;1251;97693;-66
2024/02/24 08:32:05;;;;;;;;;;;;;;;11.58;71.52;100942.00;107543;1251;112210;-65
2024/02/24 08:34:33;;;;;;;;;;;;;;;11.85;71.23;100944.60;107539;1251;108325;-62
2024/02/24 08:37:02;;;;;;;;;;;;;;;12.10;70.54;100950.77;107589;1254;107550;-62
2024/02/24 08:39:30;;;;;;;;;;;;;;;12.36;69.96;100951.27;107527;1251;97838;-64
2024/02/24 08:42:01;;;;;;;;;;;;;;;12.60;69.91;100956.15;107552;1251;97837;-63
2024/02/24 08:44:31;;;;;;;;;;;;;;;12.88;69.60;100960.38;107583;1251;112577;-64
2024/02/24 08:46:59;;;;;;;;;;;;;;;13.09;67.93;100958.63;107091;1251;605728;-64
2024/02/24 08:49:27;;;;;;;;;;;;;;;13.29;67.89;100960.79;107580;1251;108196;-63
2024/02/24 08:51:56;;;;;;;;;;;;;;;13.49;65.65;100956.42;107649;1251;98011;-65
2024/02/24 08:54:24;;;;;;;;;;;;;;;13.66;65.62;100954.35;107569;1251;98436;-62
2024/02/24 08:56:52;;;;;;;;;;;;;;;13.87;63.59;100954.15;107581;1250;111844;-63
2024/02/24 08:59:20;;;;;;;;;;;;;;;13.98;62.39;100952.86;107476;1253;108113;-64
2024/02/24 09:01:55;;;;;;;;;;;;;;;14.14;62.85;100953.08;107506;1254;107633;-63
2024/02/24 09:04:24;;;;;;;;;;;;;;;14.32;62.61;100945.58;107603;1251;97822;-63
2024/02/24 09:06:52;;;;;;;;;;;;;;;14.47;60.62;100946.48;107601;1254;97706;-63
2024/02/24 09:09:20;;;;;;;;;;;;;;;14.58;61.40;100944.05;107520;1254;110911;-64
2024/02/24 09:11:49;;;;;;;;;;;;;;;14.71;60.08;100944.56;107602;1251;108434;-65
2024/02/24 09:14:18;;;;;;;;;;;;;;;14.76;59.31;100943.91;107571;1254;108435;-62
2024/02/24 09:16:46;;;;;;;;;;;;;;;14.92;59.38;100942.75;107569;1251;97845;-64
2024/02/24 09:19:14;;;;;;;;;;;;;;;15.16;58.50;100947.45;107575;1251;97697;-63
2024/02/24 09:21:43;;;;;;;;;;;;;;;15.38;58.31;100944.05;107646;1254;111713;-64
2024/02/24 09:24:11;;;;;;;;;;;;;;;15.74;57.81;100944.30;107573;1254;108614;-63
2024/02/24 09:26:40;;;;;;;;;;;;;;;16.20;55.85;100939.29;107562;1251;108840;-63
2024/02/24 09:29:08;;;;;;;;;;;;;;;16.47;54.11;100945.20;107564;1254;97956;-64
2024/02/24 09:31:36;;;;;;;;;;;;;;;16.53;53.74;100945.67;107629;1252;97866;-66
2024/02/24 09:34:05;;;;;;;;;;;;;;;16.52;52.80;100945.20;107557;1253;111900;-63
2024/02/24 09:36:39;;;;;;;;;;;;;;;16.42;53.34;100949.23;107645;1254;107849;-62
2024/02/24 09:39:07;;;;;;;;;;;;;;;16.47;54.05;100951.61;107583;1253;108592;-63
2024/02/24 09:41:36;;;;;;;;;;;;;;;16.59;54.61;100949.84;107600;1254;97812;-62
2024/02/24 09:44:04;;;;;;;;;;;;;;;16.81;52.67;100946.67;107595;1251;97745;-63
2024/02/24 09:46:34;;;;;;;;;;;;;;;16.88;52.93;100949.70;107603;1251;111008;-63
2024/02/24 09:49:05;;;;;;;;;;;;;;;16.95;52.54;100946.56;107611;1253;108695;-63
2024/02/24 09:51:34;;;;;;;;;;;;;;;16.99;52.73;100946.70;107556;1251;108563;-63
2024/02/24 09:54:03;;;;;;;;;;;;;;;17.08;53.44;100950.81;107523;1254;97846;-63
2024/02/24 09:56:32;;;;;;;;;;;;;;;17.17;52.48;100949.32;107500;1254;98303;-63
2024/02/24 09:59:01;;;;;;;;;;;;;;;17.14;51.85;100949.95;107587;1252;110823;-65
2024/02/24 10:01:29;;;;;;;;;;;;;;;17.10;51.40;100944.19;107592;1250;107967;-63
2024/02/24 10:03:57;;;;;;;;;;;;;;;16.90;51.65;100952.19;107581;1251;108580;-63
2024/02/24 10:06:26;;;;;;;;;;;;;;;16.78;51.84;100951.37;107531;1254;97819;-63
2024/02/24 10:08:54;;;;;;;;;;;;;;;16.61;51.99;100950.21;107541;1251;97803;-64
2024/02/24 10:11:23;;;;;;;;;;;;;;;16.46;52.43;100948.21;107615;1251;111636;-63
2024/02/24 10:13:53;;;;;;;;;;;;;;;16.53;52.93;100945.14;107535;1254;107850;-62
2024/02/24 10:16:22;;;;;;;;;;;;;;;16.81;53.01;100944.17;107520;1251;108560;-63
2024/02/24 10:18:51;;;;;;;;;;;;;;;17.09;52.08;100944.66;107597;1251;97844;-62
2024/02/24 10:21:19;;;;;;;;;;;;;;;17.29;51.57;100946.19;107578;1251;97708;-63
2024/02/24 10:23:47;;;;;;;;;;;;;;;17.40;50.92;100945.48;107529;1250;112009;-62
2024/02/24 10:26:16;;;;;;;;;;;;;;;17.56;50.36;100947.11;107575;1254;108168;-63
2024/02/24 10:28:44;;;;;;;;;;;;;;;17.63;51.05;100944.80;107554;1254;108899;-64
2024/02/24 10:31:13;;;;;;;;;;;;;;;17.65;49.61;100941.39;107610;1255;97947;-65
2024/02/24 10:33:41;;;;;;;;;;;;;;;17.49;50.42;100943.16;107523;1254;97848;-64
2024/02/24 10:36:10;;;;;;;;;;;;;;;17.52;51.33;100938.09;107586;1253;110993;-63
2024/02/24 10:38:40;;;;;;;;;;;;;;;17.71;51.19;100937.38;107610;1251;108812;-64
2024/02/24 10:41:18;;;;;;;;;;;;;;;17.95;51.12;100933.15;107569;1254;109093;-63
2024/02/24 10:43:52;;;;;;;;;;;;;;;18.24;49.91;100927.56;107570;1250;97804;-64
2024/02/24 10:46:37;;;;;;;;;;;;;;;18.39;49.57;100923.70;107551;1251;97867;-63
2024/02/24 10:49:05;;;;;;;;;;;;;;;18.42;49.09;100920.94;107534;1254;112048;-64
2024/02/24 10:51:35;;;;;;;;;;;;;;;18.46;49.21;100916.30;107614;1254;107284;-64
2024/02/24 10:54:12;;;;;;;;;;;;;;;18.61;49.07;100910.75;107607;1254;107858;-64
2024/02/24 10:56:41;;;;;;;;;;;;;;;18.73;48.76;100902.11;107620;1253;97896;-63
2024/02/24 10:59:10;;;;;;;;;;;;;;;18.79;48.38;100900.91;107555;1253;97852;-63
2024/02/24 11:01:43;;;;;;;;;;;;;;;18.89;48.44;100897.48;107632;1253;112051;-64
2024/02/24 11:04:12;;;;;;;;;;;;;;;19.02;47.77;100898.30;107620;1254;108277;-63
2024/02/24 11:06:44;;;;;;;;;;;;;;;19.13;47.66;100893.48;107636;1254;108330;-62
2024/02/24 11:09:15;;;;;;;;;;;;;;;19.12;47.01;100896.54;107631;1253;97837;-63
2024/02/24 11:11:43;;;;;;;;;;;;;;;19.01;47.49;100890.27;107605;1252;97745;-62
2024/02/24 11:14:11;;;;;;;;;;;;;;;19.01;47.13;100888.39;107648;1254;111886;-62
2024/02/24 11:16:42;;;;;;;;;;;;;;;19.03;46.94;100882.92;107675;1254;108349;-63
2024/02/24 11:19:13;;;;;;;;;;;;;;;19.10;46.83;100881.54;107592;1254;108430;-64
2024/02/24 11:22:05;;;;;;;;;;;;;;;19.18;45.85;100877.75;107574;1252;97857;-63
2024/02/24 11:24:35;;;;;;;;;;;;;;;19.30;44.52;100880.11;107681;1252;97777;-63
2024/02/24 11:27:04;;;;;;;;;;;;;;;19.43;44.46;100879.59;107651;1253;110945;-63
2024/02/24 11:29:35;;;;;;;;;;;;;;;19.53;43.35;100883.30;107615;1252;108695;-63
2024/02/24 11:32:05;;;;;;;;;;;;;;;19.68;42.87;100887.25;107606;1253;108264;-63
2024/02/24 11:34:34;;;;;;;;;;;;;;;19.85;41.66;100888.18;107633;1254;97828;-61
2024/02/24 11:37:02;;;;;;;;;;;;;;;20.03;40.77;100889.64;107586;1254;97842;-63
2024/02/24 11:39:31;;;;;;;;;;;;;;;20.25;39.23;100890.21;107580;1254;112349;-62
2024/02/24 11:42:00;;;;;;;;;;;;;;;20.40;38.52;100896.85;107626;1254;108791;-63
2024/02/24 11:44:28;;;;;;;;;;;;;;;20.57;39.33;100894.73;107601;1251;109095;-63
2024/02/24 11:46:57;;;;;;;;;;;;;;;20.78;39.14;100898.90;107610;1251;97827;-62
2024/02/24 11:49:26;;;;;;;;;;;;;;;20.85;38.29;100897.14;107539;1254;98156;-62
2024/02/24 11:51:55;;;;;;;;;;;;;;;20.85;38.94;100895.48;107603;1251;111721;-63
2024/02/24 11:54:23;;;;;;;;;;;;;;;20.93;39.47;100898.49;107560;1251;108316;-62
2024/02/24 11:56:52;;;;;;;;;;;;;;;21.00;38.94;100895.75;107574;1251;108526;-63
2024/02/24 11:59:20;;;;;;;;;;;;;;;20.99;38.47;100898.05;107586;1251;98329;-64
2024/02/24 12:01:48;;;;;;;;;;;;;;;20.92;38.15;100899.32;107596;1251;97813;-64
2024/02/24 12:04:26;;;;;;;;;;;;;;;20.84;38.81;100898.73;107512;1254;111013;-63
2024/02/24 12:06:56;;;;;;;;;;;;;;;20.84;38.56;100896.09;107557;1255;108079;-62
2024/02/24 12:09:25;;;;;;;;;;;;;;;20.83;38.48;100890.83;107610;1253;108344;-63
2024/02/24 12:11:55;;;;;;;;;;;;;;;20.85;38.26;100885.31;107593;1251;97855;-63
2024/02/24 12:14:28;;;;;;;;;;;;;;;20.89;38.14;100886.59;107557;1254;97835;-63
2024/02/24 12:16:58;;;;;;;;;;;;;;;20.92;38.38;100885.23;107586;1254;111998;-63
2024/02/24 12:19:27;;;;;;;;;;;;;;;20.92;37.55;100882.16;107595;1251;108785;-63
2024/02/24 12:21:56;;;;;;;;;;;;;;;20.85;37.65;100881.52;107582;1254;108214;-64
2024/02/24 12:24:28;;;;;;;;;;;;;;;20.73;37.60;100882.52;107590;1254;97721;-63
2024/02/24 12:27:01;;;;;;;;;;;;;;;20.69;38.01;100882.12;107693;1251;97845;-63
2024/02/24 12:29:29;;;;;;;;;;;;;;;20.72;38.03;100885.55;107550;1251;111862;-63
2024/02/24 12:31:58;;;;;;;;;;;;;;;20.75;38.11;100882.36;107608;1254;108140;-63
2024/02/24 12:34:27;;;;;;;;;;;;;;;20.82;38.04;100879.90;107625;1253;107641;-63
2024/02/24 12:36:58;;;;;;;;;;;;;;;20.86;37.34;100877.75;107614;1251;97862;-62